sensor_id;sensor_type;location;lat;lon;timestamp;P1;durP1;ratioP1;P2;durP2;ratioP2
22947;SDS011;11640;52.520;13.456;2022-09-13T00:03:38;5.30;;;4.28;;
22947;SDS011;11640;52.520;13.456;2022-09-13T00:08:40;5.45;;;4.32;;
22947;SDS011;11640;52.520;13.456;2022-09-13T00:13:43;6.07;;;4.40;;
22947;SDS011;11640;52.520;13.456;2022-09-13T00:18:45;6.13;;;4.53;;
22947;SDS011;11640;52.520;13.456;2022-09-13T00:23:52;6.55;;;5.05;;
22947;SDS011;11640;52.520;13.456;2022-09-13T00:28:55;6.03;;;4.63;;
22947;SDS011;11640;52.520;13.456;2022-09-13T00:33:58;6.28;;;4.50;;
22947;SDS011;11640;52.520;13.456;2022-09-13T00:39:00;6.53;;;4.57;;
22947;SDS011;11640;52.520;13.456;2022-09-13T00:44:02;6.32;;;4.90;;
22947;SDS011;11640;52.520;13.456;2022-09-13T00:54:31;6.63;;;4.38;;
22947;SDS011;11640;52.520;13.456;2022-09-13T00:59:45;5.75;;;4.28;;
22947;SDS011;11640;52.520;13.456;2022-09-13T01:04:52;5.72;;;4.43;;
22947;SDS011;11640;52.520;13.456;2022-09-13T01:09:54;5.10;;;4.10;;
22947;SDS011;11640;52.520;13.456;2022-09-13T01:14:56;5.25;;;4.07;;
22947;SDS011;11640;52.520;13.456;2022-09-13T01:20:00;6.45;;;4.00;;
22947;SDS011;11640;52.520;13.456;2022-09-13T01:30:19;5.00;;;4.05;;
22947;SDS011;11640;52.520;13.456;2022-09-13T01:41:00;6.40;;;4.50;;
22947;SDS011;11640;52.520;13.456;2022-09-13T01:46:08;4.90;;;4.03;;
22947;SDS011;11640;52.520;13.456;2022-09-13T01:51:25;7.00;;;4.50;;
22947;SDS011;11640;52.520;13.456;2022-09-13T01:56:38;6.55;;;4.40;;
22947;SDS011;11640;52.520;13.456;2022-09-13T02:01:51;7.68;;;4.45;;
22947;SDS011;11640;52.520;13.456;2022-09-13T02:12:22;5.68;;;4.43;;
22947;SDS011;11640;52.520;13.456;2022-09-13T02:17:27;7.40;;;4.03;;
22947;SDS011;11640;52.520;13.456;2022-09-13T02:22:33;5.05;;;3.95;;
22947;SDS011;11640;52.520;13.456;2022-09-13T02:27:39;5.85;;;4.22;;
22947;SDS011;11640;52.520;13.456;2022-09-13T02:32:49;5.90;;;4.00;;
22947;SDS011;11640;52.520;13.456;2022-09-13T02:38:00;5.20;;;4.20;;
22947;SDS011;11640;52.520;13.456;2022-09-13T02:43:16;5.57;;;4.28;;
22947;SDS011;11640;52.520;13.456;2022-09-13T02:53:41;6.65;;;4.53;;
22947;SDS011;11640;52.520;13.456;2022-09-13T02:58:52;6.97;;;4.10;;
22947;SDS011;11640;52.520;13.456;2022-09-13T03:04:01;5.55;;;4.50;;
22947;SDS011;11640;52.520;13.456;2022-09-13T03:09:03;5.80;;;4.70;;
22947;SDS011;11640;52.520;13.456;2022-09-13T03:14:22;5.55;;;4.57;;
22947;SDS011;11640;52.520;13.456;2022-09-13T03:19:39;6.13;;;4.70;;
22947;SDS011;11640;52.520;13.456;2022-09-13T03:35:26;6.38;;;4.68;;
22947;SDS011;11640;52.520;13.456;2022-09-13T03:40:46;6.10;;;4.90;;
22947;SDS011;11640;52.520;13.456;2022-09-13T03:45:52;6.43;;;4.90;;
22947;SDS011;11640;52.520;13.456;2022-09-13T03:50:57;5.93;;;5.07;;
22947;SDS011;11640;52.520;13.456;2022-09-13T03:55:59;6.97;;;5.47;;
22947;SDS011;11640;52.520;13.456;2022-09-13T04:01:01;7.05;;;5.78;;
22947;SDS011;11640;52.520;13.456;2022-09-13T04:06:03;6.45;;;5.28;;
22947;SDS011;11640;52.520;13.456;2022-09-13T04:11:05;6.70;;;5.15;;
22947;SDS011;11640;52.520;13.456;2022-09-13T04:16:09;6.22;;;5.47;;
22947;SDS011;11640;52.520;13.456;2022-09-13T04:21:11;6.60;;;5.22;;
22947;SDS011;11640;52.520;13.456;2022-09-13T04:26:12;6.93;;;5.55;;
22947;SDS011;11640;52.520;13.456;2022-09-13T04:31:15;7.25;;;5.88;;
22947;SDS011;11640;52.520;13.456;2022-09-13T04:36:17;6.47;;;5.82;;
22947;SDS011;11640;52.520;13.456;2022-09-13T04:41:19;9.43;;;5.80;;
22947;SDS011;11640;52.520;13.456;2022-09-13T04:46:20;9.43;;;6.20;;
22947;SDS011;11640;52.520;13.456;2022-09-13T04:51:22;6.90;;;6.20;;
22947;SDS011;11640;52.520;13.456;2022-09-13T04:56:24;8.30;;;5.68;;
22947;SDS011;11640;52.520;13.456;2022-09-13T05:01:26;7.28;;;5.97;;
22947;SDS011;11640;52.520;13.456;2022-09-13T05:06:28;7.63;;;6.55;;
22947;SDS011;11640;52.520;13.456;2022-09-13T05:11:30;7.32;;;6.13;;
22947;SDS011;11640;52.520;13.456;2022-09-13T05:16:33;8.07;;;6.13;;
22947;SDS011;11640;52.520;13.456;2022-09-13T05:21:34;8.05;;;6.40;;
22947;SDS011;11640;52.520;13.456;2022-09-13T05:26:36;7.22;;;6.15;;
22947;SDS011;11640;52.520;13.456;2022-09-13T05:31:39;7.80;;;6.40;;
22947;SDS011;11640;52.520;13.456;2022-09-13T05:36:42;9.35;;;6.93;;
22947;SDS011;11640;52.520;13.456;2022-09-13T05:41:44;9.00;;;6.60;;
22947;SDS011;11640;52.520;13.456;2022-09-13T05:46:46;8.60;;;6.50;;
22947;SDS011;11640;52.520;13.456;2022-09-13T05:51:48;8.98;;;7.10;;
22947;SDS011;11640;52.520;13.456;2022-09-13T05:56:50;8.80;;;6.43;;
22947;SDS011;11640;52.520;13.456;2022-09-13T06:01:54;9.18;;;6.97;;
22947;SDS011;11640;52.520;13.456;2022-09-13T06:06:56;10.48;;;8.05;;
22947;SDS011;11640;52.520;13.456;2022-09-13T06:11:57;11.70;;;8.63;;
22947;SDS011;11640;52.520;13.456;2022-09-13T06:16:59;10.18;;;8.77;;
22947;SDS011;11640;52.520;13.456;2022-09-13T06:22:01;12.80;;;9.25;;
22947;SDS011;11640;52.520;13.456;2022-09-13T06:27:03;11.55;;;9.07;;
22947;SDS011;11640;52.520;13.456;2022-09-13T06:32:05;10.85;;;9.00;;
22947;SDS011;11640;52.520;13.456;2022-09-13T06:37:07;13.60;;;10.32;;
22947;SDS011;11640;52.520;13.456;2022-09-13T06:42:08;15.52;;;10.88;;
22947;SDS011;11640;52.520;13.456;2022-09-13T06:47:13;13.27;;;10.82;;
22947;SDS011;11640;52.520;13.456;2022-09-13T06:52:15;13.90;;;11.18;;
22947;SDS011;11640;52.520;13.456;2022-09-13T06:57:16;14.55;;;10.13;;
22947;SDS011;11640;52.520;13.456;2022-09-13T07:02:18;12.85;;;11.02;;
22947;SDS011;11640;52.520;13.456;2022-09-13T07:07:20;14.00;;;11.20;;
22947;SDS011;11640;52.520;13.456;2022-09-13T07:12:22;13.70;;;10.80;;
22947;SDS011;11640;52.520;13.456;2022-09-13T07:17:23;11.52;;;10.32;;
22947;SDS011;11640;52.520;13.456;2022-09-13T07:22:30;11.80;;;10.55;;
22947;SDS011;11640;52.520;13.456;2022-09-13T07:27:32;11.60;;;10.23;;
22947;SDS011;11640;52.520;13.456;2022-09-13T07:32:34;14.25;;;11.32;;
22947;SDS011;11640;52.520;13.456;2022-09-13T07:37:36;13.95;;;10.45;;
22947;SDS011;11640;52.520;13.456;2022-09-13T07:42:37;11.80;;;10.57;;
22947;SDS011;11640;52.520;13.456;2022-09-13T07:47:39;14.52;;;10.90;;
22947;SDS011;11640;52.520;13.456;2022-09-13T07:52:42;12.65;;;10.15;;
22947;SDS011;11640;52.520;13.456;2022-09-13T07:57:44;11.38;;;9.95;;
22947;SDS011;11640;52.520;13.456;2022-09-13T08:02:46;13.43;;;9.85;;
22947;SDS011;11640;52.520;13.456;2022-09-13T08:07:48;10.88;;;9.73;;
22947;SDS011;11640;52.520;13.456;2022-09-13T08:12:49;12.70;;;9.55;;
22947;SDS011;11640;52.520;13.456;2022-09-13T08:17:51;12.95;;;10.45;;
22947;SDS011;11640;52.520;13.456;2022-09-13T08:22:56;14.27;;;11.15;;
22947;SDS011;11640;52.520;13.456;2022-09-13T08:27:58;24.67;;;11.93;;
22947;SDS011;11640;52.520;13.456;2022-09-13T08:33:00;13.13;;;11.23;;
22947;SDS011;11640;52.520;13.456;2022-09-13T08:38:03;14.90;;;10.90;;
22947;SDS011;11640;52.520;13.456;2022-09-13T08:43:12;12.15;;;10.45;;
22947;SDS011;11640;52.520;13.456;2022-09-13T08:48:53;11.30;;;9.85;;
22947;SDS011;11640;52.520;13.456;2022-09-13T08:53:58;13.48;;;10.10;;
22947;SDS011;11640;52.520;13.456;2022-09-13T09:04:38;12.50;;;10.15;;
22947;SDS011;11640;52.520;13.456;2022-09-13T09:09:53;12.48;;;10.15;;
22947;SDS011;11640;52.520;13.456;2022-09-13T09:20:22;12.30;;;10.20;;
22947;SDS011;11640;52.520;13.456;2022-09-13T09:25:27;11.98;;;9.65;;
22947;SDS011;11640;52.520;13.456;2022-09-13T09:30:37;11.55;;;10.35;;
22947;SDS011;11640;52.520;13.456;2022-09-13T09:36:06;14.23;;;10.23;;
22947;SDS011;11640;52.520;13.456;2022-09-13T09:41:28;13.85;;;9.95;;
22947;SDS011;11640;52.520;13.456;2022-09-13T09:46:33;13.73;;;10.40;;
22947;SDS011;11640;52.520;13.456;2022-09-13T09:51:38;12.95;;;9.90;;
22947;SDS011;11640;52.520;13.456;2022-09-13T09:56:40;13.77;;;10.15;;
22947;SDS011;11640;52.520;13.456;2022-09-13T10:01:54;13.38;;;9.88;;
22947;SDS011;11640;52.520;13.456;2022-09-13T10:12:24;10.85;;;9.00;;
22947;SDS011;11640;52.520;13.456;2022-09-13T10:17:29;10.73;;;8.82;;
22947;SDS011;11640;52.520;13.456;2022-09-13T10:22:31;9.60;;;8.05;;
22947;SDS011;11640;52.520;13.456;2022-09-13T10:27:34;9.70;;;8.00;;
22947;SDS011;11640;52.520;13.456;2022-09-13T10:32:42;12.53;;;9.30;;
22947;SDS011;11640;52.520;13.456;2022-09-13T10:37:55;12.05;;;8.70;;
22947;SDS011;11640;52.520;13.456;2022-09-13T10:42:58;11.35;;;8.93;;
22947;SDS011;11640;52.520;13.456;2022-09-13T10:53:28;10.52;;;8.13;;
22947;SDS011;11640;52.520;13.456;2022-09-13T10:58:37;13.15;;;9.52;;
22947;SDS011;11640;52.520;13.456;2022-09-13T11:03:50;11.77;;;10.48;;
22947;SDS011;11640;52.520;13.456;2022-09-13T11:14:37;11.30;;;9.82;;
22947;SDS011;11640;52.520;13.456;2022-09-13T11:20:02;12.57;;;9.93;;
22947;SDS011;11640;52.520;13.456;2022-09-13T11:31:20;17.95;;;12.50;;
22947;SDS011;11640;52.520;13.456;2022-09-13T11:52:15;21.92;;;18.40;;
22947;SDS011;11640;52.520;13.456;2022-09-13T12:08:12;14.77;;;11.57;;
22947;SDS011;11640;52.520;13.456;2022-09-13T12:13:21;15.05;;;11.50;;
22947;SDS011;11640;52.520;13.456;2022-09-13T12:18:33;15.13;;;11.60;;
22947;SDS011;11640;52.520;13.456;2022-09-13T12:29:03;15.13;;;11.70;;
22947;SDS011;11640;52.520;13.456;2022-09-13T12:34:19;15.40;;;12.73;;
22947;SDS011;11640;52.520;13.456;2022-09-13T12:39:32;21.52;;;15.98;;
22947;SDS011;11640;52.520;13.456;2022-09-13T12:44:59;20.30;;;16.23;;
22947;SDS011;11640;52.520;13.456;2022-09-13T12:50:32;20.15;;;17.33;;
22947;SDS011;11640;52.520;13.456;2022-09-13T12:55:51;17.40;;;14.50;;
22947;SDS011;11640;52.520;13.456;2022-09-13T13:06:15;17.70;;;14.15;;
22947;SDS011;11640;52.520;13.456;2022-09-13T13:11:41;16.48;;;13.05;;
22947;SDS011;11640;52.520;13.456;2022-09-13T13:16:46;19.83;;;13.52;;
22947;SDS011;11640;52.520;13.456;2022-09-13T13:21:49;16.02;;;14.20;;
22947;SDS011;11640;52.520;13.456;2022-09-13T13:26:52;15.93;;;13.00;;
22947;SDS011;11640;52.520;13.456;2022-09-13T13:37:01;19.92;;;15.73;;
22947;SDS011;11640;52.520;13.456;2022-09-13T13:57:39;11.90;;;10.60;;
22947;SDS011;11640;52.520;13.456;2022-09-13T14:03:15;11.65;;;8.00;;
22947;SDS011;11640;52.520;13.456;2022-09-13T14:19:26;10.70;;;7.90;;
22947;SDS011;11640;52.520;13.456;2022-09-13T14:24:29;8.43;;;6.50;;
22947;SDS011;11640;52.520;13.456;2022-09-13T14:29:39;8.23;;;6.20;;
22947;SDS011;11640;52.520;13.456;2022-09-13T14:45:11;7.75;;;5.60;;
22947;SDS011;11640;52.520;13.456;2022-09-13T14:50:26;7.50;;;5.43;;
22947;SDS011;11640;52.520;13.456;2022-09-13T14:55:35;6.75;;;5.20;;
22947;SDS011;11640;52.520;13.456;2022-09-13T15:06:06;7.90;;;5.47;;
22947;SDS011;11640;52.520;13.456;2022-09-13T15:11:28;7.55;;;5.22;;
22947;SDS011;11640;52.520;13.456;2022-09-13T15:16:34;8.30;;;6.10;;
22947;SDS011;11640;52.520;13.456;2022-09-13T15:21:47;8.95;;;6.43;;
22947;SDS011;11640;52.520;13.456;2022-09-13T15:26:59;8.52;;;6.63;;
22947;SDS011;11640;52.520;13.456;2022-09-13T15:32:17;10.85;;;7.25;;
22947;SDS011;11640;52.520;13.456;2022-09-13T15:37:31;9.90;;;8.55;;
22947;SDS011;11640;52.520;13.456;2022-09-13T15:42:37;10.32;;;7.90;;
22947;SDS011;11640;52.520;13.456;2022-09-13T15:47:39;11.38;;;7.82;;
22947;SDS011;11640;52.520;13.456;2022-09-13T15:52:44;8.98;;;7.78;;
22947;SDS011;11640;52.520;13.456;2022-09-13T15:57:46;10.45;;;8.00;;
22947;SDS011;11640;52.520;13.456;2022-09-13T16:02:48;9.65;;;7.80;;
22947;SDS011;11640;52.520;13.456;2022-09-13T16:07:50;12.02;;;8.95;;
22947;SDS011;11640;52.520;13.456;2022-09-13T16:12:54;10.05;;;8.02;;
22947;SDS011;11640;52.520;13.456;2022-09-13T16:17:56;10.75;;;8.57;;
22947;SDS011;11640;52.520;13.456;2022-09-13T16:22:57;13.95;;;7.53;;
22947;SDS011;11640;52.520;13.456;2022-09-13T16:27:59;9.70;;;7.43;;
22947;SDS011;11640;52.520;13.456;2022-09-13T16:33:02;10.25;;;7.63;;
22947;SDS011;11640;52.520;13.456;2022-09-13T16:38:04;13.30;;;7.32;;
22947;SDS011;11640;52.520;13.456;2022-09-13T16:43:05;10.00;;;7.25;;
22947;SDS011;11640;52.520;13.456;2022-09-13T16:48:07;9.32;;;6.68;;
22947;SDS011;11640;52.520;13.456;2022-09-13T16:53:10;8.98;;;6.90;;
22947;SDS011;11640;52.520;13.456;2022-09-13T16:58:14;9.50;;;7.20;;
22947;SDS011;11640;52.520;13.456;2022-09-13T17:03:21;9.68;;;7.68;;
22947;SDS011;11640;52.520;13.456;2022-09-13T17:08:23;10.48;;;7.82;;
22947;SDS011;11640;52.520;13.456;2022-09-13T17:13:24;8.80;;;6.90;;
22947;SDS011;11640;52.520;13.456;2022-09-13T17:18:26;8.18;;;7.22;;
22947;SDS011;11640;52.520;13.456;2022-09-13T17:23:28;8.63;;;7.07;;
22947;SDS011;11640;52.520;13.456;2022-09-13T17:28:30;8.10;;;6.43;;
22947;SDS011;11640;52.520;13.456;2022-09-13T17:33:31;11.02;;;6.60;;
22947;SDS011;11640;52.520;13.456;2022-09-13T17:38:34;8.00;;;6.60;;
22947;SDS011;11640;52.520;13.456;2022-09-13T17:43:37;7.50;;;5.85;;
22947;SDS011;11640;52.520;13.456;2022-09-13T17:48:40;7.03;;;5.47;;
22947;SDS011;11640;52.520;13.456;2022-09-13T17:53:44;7.32;;;6.03;;
22947;SDS011;11640;52.520;13.456;2022-09-13T17:58:47;6.80;;;5.30;;
22947;SDS011;11640;52.520;13.456;2022-09-13T18:03:49;7.75;;;6.05;;
22947;SDS011;11640;52.520;13.456;2022-09-13T18:08:54;6.47;;;5.20;;
22947;SDS011;11640;52.520;13.456;2022-09-13T18:13:56;7.47;;;4.93;;
22947;SDS011;11640;52.520;13.456;2022-09-13T18:18:58;7.75;;;5.25;;
22947;SDS011;11640;52.520;13.456;2022-09-13T18:24:01;7.18;;;4.57;;
22947;SDS011;11640;52.520;13.456;2022-09-13T18:29:04;9.68;;;6.47;;
22947;SDS011;11640;52.520;13.456;2022-09-13T18:34:12;6.25;;;4.57;;
22947;SDS011;11640;52.520;13.456;2022-09-13T18:39:15;6.90;;;5.03;;
22947;SDS011;11640;52.520;13.456;2022-09-13T18:44:19;5.90;;;4.15;;
22947;SDS011;11640;52.520;13.456;2022-09-13T18:49:21;6.25;;;4.28;;
22947;SDS011;11640;52.520;13.456;2022-09-13T18:54:23;6.43;;;4.32;;
22947;SDS011;11640;52.520;13.456;2022-09-13T18:59:24;6.75;;;4.85;;
22947;SDS011;11640;52.520;13.456;2022-09-13T19:04:27;6.50;;;4.95;;
22947;SDS011;11640;52.520;13.456;2022-09-13T19:09:29;8.65;;;6.32;;
22947;SDS011;11640;52.520;13.456;2022-09-13T19:14:31;6.88;;;5.00;;
22947;SDS011;11640;52.520;13.456;2022-09-13T19:19:33;7.82;;;5.72;;
22947;SDS011;11640;52.520;13.456;2022-09-13T19:24:35;8.07;;;6.07;;
22947;SDS011;11640;52.520;13.456;2022-09-13T19:29:38;6.38;;;5.28;;
22947;SDS011;11640;52.520;13.456;2022-09-13T19:34:40;7.75;;;6.20;;
22947;SDS011;11640;52.520;13.456;2022-09-13T19:39:42;7.35;;;6.13;;
22947;SDS011;11640;52.520;13.456;2022-09-13T19:44:43;9.38;;;6.68;;
22947;SDS011;11640;52.520;13.456;2022-09-13T19:49:45;7.35;;;6.28;;
22947;SDS011;11640;52.520;13.456;2022-09-13T19:54:49;9.38;;;7.35;;
22947;SDS011;11640;52.520;13.456;2022-09-13T19:59:52;9.15;;;6.90;;
22947;SDS011;11640;52.520;13.456;2022-09-13T20:04:54;9.55;;;6.47;;
22947;SDS011;11640;52.520;13.456;2022-09-13T20:09:55;9.23;;;6.82;;
22947;SDS011;11640;52.520;13.456;2022-09-13T20:14:57;8.15;;;6.15;;
22947;SDS011;11640;52.520;13.456;2022-09-13T20:19:59;7.85;;;5.97;;
22947;SDS011;11640;52.520;13.456;2022-09-13T20:25:00;9.45;;;5.72;;
22947;SDS011;11640;52.520;13.456;2022-09-13T20:30:04;9.70;;;5.28;;
22947;SDS011;11640;52.520;13.456;2022-09-13T20:35:08;7.55;;;4.32;;
22947;SDS011;11640;52.520;13.456;2022-09-13T20:40:10;8.27;;;3.95;;
22947;SDS011;11640;52.520;13.456;2022-09-13T20:45:12;8.75;;;4.07;;
22947;SDS011;11640;52.520;13.456;2022-09-13T20:50:16;10.95;;;3.47;;
22947;SDS011;11640;52.520;13.456;2022-09-13T20:55:20;6.07;;;3.10;;
22947;SDS011;11640;52.520;13.456;2022-09-13T21:00:22;7.35;;;3.30;;
22947;SDS011;11640;52.520;13.456;2022-09-13T21:05:25;6.57;;;3.05;;
22947;SDS011;11640;52.520;13.456;2022-09-13T21:10:27;7.13;;;3.30;;
22947;SDS011;11640;52.520;13.456;2022-09-13T21:15:29;8.13;;;3.03;;
22947;SDS011;11640;52.520;13.456;2022-09-13T21:20:31;7.07;;;2.85;;
22947;SDS011;11640;52.520;13.456;2022-09-13T21:25:34;13.35;;;3.10;;
22947;SDS011;11640;52.520;13.456;2022-09-13T21:30:36;6.93;;;3.00;;
22947;SDS011;11640;52.520;13.456;2022-09-13T21:35:38;7.68;;;3.38;;
22947;SDS011;11640;52.520;13.456;2022-09-13T21:40:40;7.05;;;3.10;;
22947;SDS011;11640;52.520;13.456;2022-09-13T21:45:43;9.82;;;4.22;;
22947;SDS011;11640;52.520;13.456;2022-09-13T21:50:45;8.52;;;3.65;;
22947;SDS011;11640;52.520;13.456;2022-09-13T21:55:47;9.43;;;3.40;;
22947;SDS011;11640;52.520;13.456;2022-09-13T22:00:49;9.90;;;3.60;;
22947;SDS011;11640;52.520;13.456;2022-09-13T22:05:54;8.07;;;3.95;;
22947;SDS011;11640;52.520;13.456;2022-09-13T22:11:01;8.98;;;3.90;;
22947;SDS011;11640;52.520;13.456;2022-09-13T22:16:07;7.47;;;2.72;;
22947;SDS011;11640;52.520;13.456;2022-09-13T22:21:11;7.93;;;3.15;;
22947;SDS011;11640;52.520;13.456;2022-09-13T22:26:15;7.57;;;3.08;;
22947;SDS011;11640;52.520;13.456;2022-09-13T22:31:21;7.93;;;3.58;;
22947;SDS011;11640;52.520;13.456;2022-09-13T22:36:24;8.82;;;3.20;;
22947;SDS011;11640;52.520;13.456;2022-09-13T22:41:27;6.75;;;2.53;;
22947;SDS011;11640;52.520;13.456;2022-09-13T22:46:32;8.80;;;2.58;;
22947;SDS011;11640;52.520;13.456;2022-09-13T22:51:36;9.00;;;2.35;;
22947;SDS011;11640;52.520;13.456;2022-09-13T22:56:37;6.82;;;1.58;;
22947;SDS011;11640;52.520;13.456;2022-09-13T23:01:39;5.18;;;1.95;;
22947;SDS011;11640;52.520;13.456;2022-09-13T23:06:42;7.30;;;1.60;;
22947;SDS011;11640;52.520;13.456;2022-09-13T23:11:44;6.75;;;1.75;;
22947;SDS011;11640;52.520;13.456;2022-09-13T23:16:47;8.35;;;2.25;;
22947;SDS011;11640;52.520;13.456;2022-09-13T23:21:51;8.00;;;1.80;;
22947;SDS011;11640;52.520;13.456;2022-09-13T23:26:53;4.70;;;1.45;;
22947;SDS011;11640;52.520;13.456;2022-09-13T23:31:56;6.95;;;1.77;;
22947;SDS011;11640;52.520;13.456;2022-09-13T23:36:58;6.25;;;1.90;;
22947;SDS011;11640;52.520;13.456;2022-09-13T23:41:59;8.93;;;2.08;;
22947;SDS011;11640;52.520;13.456;2022-09-13T23:47:01;6.72;;;1.88;;
22947;SDS011;11640;52.520;13.456;2022-09-13T23:52:03;10.45;;;2.35;;
22947;SDS011;11640;52.520;13.456;2022-09-13T23:57:05;12.32;;;2.10;;
